sensor_id;sensor_type;location;lat;lon;timestamp;noise_LAeq;noise_LA_min;noise_LA_max;noise_LA01;noise_LA95
66888;Laerm;53798;51.680;5.976;2022-08-25T00:00:16;36.80;33.27;49.45;;
66888;Laerm;53798;51.680;5.976;2022-08-25T00:02:44;36.75;33.45;43.73;;
66888;Laerm;53798;51.680;5.976;2022-08-25T00:05:28;36.09;33.04;44.05;;
66888;Laerm;53798;51.680;5.976;2022-08-25T00:08:01;56.89;34.22;77.31;;
66888;Laerm;53798;51.680;5.976;2022-08-25T00:10:29;37.13;34.26;44.67;;
66888;Laerm;53798;51.680;5.976;2022-08-25T00:12:57;70.98;33.67;91.28;;
66888;Laerm;53798;51.680;5.976;2022-08-25T00:15:25;71.44;35.48;92.06;;
66888;Laerm;53798;51.680;5.976;2022-08-25T00:17:54;39.62;34.42;50.79;;
66888;Laerm;53798;51.680;5.976;2022-08-25T00:20:23;38.44;34.82;48.52;;
66888;Laerm;53798;51.680;5.976;2022-08-25T00:22:51;38.00;33.56;44.38;;
66888;Laerm;53798;51.680;5.976;2022-08-25T00:25:19;36.44;32.83;45.57;;
66888;Laerm;53798;51.680;5.976;2022-08-25T00:27:46;39.03;34.04;50.78;;
66888;Laerm;53798;51.680;5.976;2022-08-25T00:30:15;37.77;34.09;43.13;;
66888;Laerm;53798;51.680;5.976;2022-08-25T00:32:44;54.05;34.86;78.26;;
66888;Laerm;53798;51.680;5.976;2022-08-25T00:35:25;70.12;36.25;88.28;;
66888;Laerm;53798;51.680;5.976;2022-08-25T00:37:54;57.58;35.91;75.46;;
66888;Laerm;53798;51.680;5.976;2022-08-25T00:40:25;37.08;33.90;46.45;;
66888;Laerm;53798;51.680;5.976;2022-08-25T00:42:54;37.75;34.61;45.11;;
66888;Laerm;53798;51.680;5.976;2022-08-25T00:45:22;38.55;34.80;44.98;;
66888;Laerm;53798;51.680;5.976;2022-08-25T00:47:50;59.55;35.07;75.23;;
66888;Laerm;53798;51.680;5.976;2022-08-25T00:50:20;36.73;33.76;43.37;;
66888;Laerm;53798;51.680;5.976;2022-08-25T00:52:55;61.30;35.63;80.09;;
66888;Laerm;53798;51.680;5.976;2022-08-25T00:55:35;37.54;33.68;45.55;;
66888;Laerm;53798;51.680;5.976;2022-08-25T00:58:19;37.91;34.22;46.22;;
66888;Laerm;53798;51.680;5.976;2022-08-25T01:00:51;53.34;34.70;72.17;;
66888;Laerm;53798;51.680;5.976;2022-08-25T01:03:23;38.45;34.33;44.29;;
66888;Laerm;53798;51.680;5.976;2022-08-25T01:06:02;37.63;34.30;46.24;;
66888;Laerm;53798;51.680;5.976;2022-08-25T01:08:31;36.38;33.70;47.70;;
66888;Laerm;53798;51.680;5.976;2022-08-25T01:11:05;36.91;34.33;41.81;;
66888;Laerm;53798;51.680;5.976;2022-08-25T01:13:41;38.23;35.21;42.99;;
66888;Laerm;53798;51.680;5.976;2022-08-25T01:16:14;37.53;34.62;42.44;;
66888;Laerm;53798;51.680;5.976;2022-08-25T01:18:56;40.41;35.02;48.56;;
66888;Laerm;53798;51.680;5.976;2022-08-25T01:21:27;38.59;34.62;59.00;;
66888;Laerm;53798;51.680;5.976;2022-08-25T01:23:57;38.22;34.45;45.20;;
66888;Laerm;53798;51.680;5.976;2022-08-25T01:26:33;60.79;35.02;79.80;;
66888;Laerm;53798;51.680;5.976;2022-08-25T01:29:05;37.46;34.03;51.52;;
66888;Laerm;53798;51.680;5.976;2022-08-25T01:32:05;36.84;33.90;42.63;;
66888;Laerm;53798;51.680;5.976;2022-08-25T01:34:40;38.34;35.07;45.23;;
66888;Laerm;53798;51.680;5.976;2022-08-25T01:37:10;39.52;35.36;45.49;;
66888;Laerm;53798;51.680;5.976;2022-08-25T01:39:42;38.88;35.16;45.12;;
66888;Laerm;53798;51.680;5.976;2022-08-25T01:42:51;39.04;35.55;44.94;;
66888;Laerm;53798;51.680;5.976;2022-08-25T01:45:06;36.75;33.77;45.12;;
66888;Laerm;53798;51.680;5.976;2022-08-25T01:47:33;37.29;34.69;41.23;;
66888;Laerm;53798;51.680;5.976;2022-08-25T01:50:00;38.03;34.90;44.83;;
66888;Laerm;53798;51.680;5.976;2022-08-25T01:52:36;37.41;34.58;43.03;;
66888;Laerm;53798;51.680;5.976;2022-08-25T01:55:09;36.26;34.10;40.48;;
66888;Laerm;53798;51.680;5.976;2022-08-25T01:57:36;38.63;35.18;47.07;;
66888;Laerm;53798;51.680;5.976;2022-08-25T02:00:07;37.55;33.81;47.33;;
66888;Laerm;53798;51.680;5.976;2022-08-25T02:02:38;60.05;35.36;75.79;;
66888;Laerm;53798;51.680;5.976;2022-08-25T02:05:11;39.04;34.90;43.66;;
66888;Laerm;53798;51.680;5.976;2022-08-25T02:07:40;38.82;35.04;53.85;;
66888;Laerm;53798;51.680;5.976;2022-08-25T02:10:12;38.53;35.20;45.84;;
66888;Laerm;53798;51.680;5.976;2022-08-25T02:12:39;44.43;37.11;64.82;;
66888;Laerm;53798;51.680;5.976;2022-08-25T02:15:07;43.02;35.84;62.04;;
66888;Laerm;53798;51.680;5.976;2022-08-25T02:17:35;40.00;35.63;48.64;;
66888;Laerm;53798;51.680;5.976;2022-08-25T02:20:05;39.34;35.68;44.87;;
66888;Laerm;53798;51.680;5.976;2022-08-25T02:22:35;56.70;36.47;75.71;;
66888;Laerm;53798;51.680;5.976;2022-08-25T02:25:03;40.35;37.24;46.99;;
66888;Laerm;53798;51.680;5.976;2022-08-25T02:27:31;39.68;35.72;48.60;;
66888;Laerm;53798;51.680;5.976;2022-08-25T02:29:59;40.03;36.84;48.24;;
66888;Laerm;53798;51.680;5.976;2022-08-25T02:32:26;55.77;36.31;73.67;;
66888;Laerm;53798;51.680;5.976;2022-08-25T02:34:53;40.25;36.56;47.34;;
66888;Laerm;53798;51.680;5.976;2022-08-25T02:37:21;42.17;38.19;53.86;;
66888;Laerm;53798;51.680;5.976;2022-08-25T02:39:48;42.36;38.47;48.25;;
66888;Laerm;53798;51.680;5.976;2022-08-25T02:42:16;42.06;38.24;51.30;;
66888;Laerm;53798;51.680;5.976;2022-08-25T02:44:43;63.78;37.31;83.64;;
66888;Laerm;53798;51.680;5.976;2022-08-25T02:47:10;42.01;37.34;48.50;;
66888;Laerm;53798;51.680;5.976;2022-08-25T02:49:37;56.77;36.41;74.96;;
66888;Laerm;53798;51.680;5.976;2022-08-25T02:52:04;54.97;36.88;71.45;;
66888;Laerm;53798;51.680;5.976;2022-08-25T02:54:31;40.84;36.97;49.74;;
66888;Laerm;53798;51.680;5.976;2022-08-25T02:56:58;64.73;37.74;80.27;;
66888;Laerm;53798;51.680;5.976;2022-08-25T02:59:26;40.34;36.66;47.32;;
66888;Laerm;53798;51.680;5.976;2022-08-25T03:01:53;64.29;37.14;84.22;;
66888;Laerm;53798;51.680;5.976;2022-08-25T03:04:20;55.85;36.88;74.97;;
66888;Laerm;53798;51.680;5.976;2022-08-25T03:06:47;65.18;36.76;81.70;;
66888;Laerm;53798;51.680;5.976;2022-08-25T03:09:15;54.98;37.49;73.02;;
66888;Laerm;53798;51.680;5.976;2022-08-25T03:11:45;40.87;35.45;50.72;;
66888;Laerm;53798;51.680;5.976;2022-08-25T03:14:13;38.74;35.83;45.96;;
66888;Laerm;53798;51.680;5.976;2022-08-25T03:16:41;42.59;35.22;59.38;;
66888;Laerm;53798;51.680;5.976;2022-08-25T03:19:12;58.31;36.01;76.47;;
66888;Laerm;53798;51.680;5.976;2022-08-25T03:21:40;57.23;37.43;73.02;;
66888;Laerm;53798;51.680;5.976;2022-08-25T03:24:07;53.26;37.47;69.20;;
66888;Laerm;53798;51.680;5.976;2022-08-25T03:26:34;54.19;38.94;71.33;;
66888;Laerm;53798;51.680;5.976;2022-08-25T03:29:32;60.34;39.28;75.84;;
66888;Laerm;53798;51.680;5.976;2022-08-25T03:32:00;62.09;38.27;75.64;;
66888;Laerm;53798;51.680;5.976;2022-08-25T03:34:29;42.70;37.82;57.46;;
66888;Laerm;53798;51.680;5.976;2022-08-25T03:36:57;66.36;40.17;81.16;;
66888;Laerm;53798;51.680;5.976;2022-08-25T03:39:25;61.85;38.93;77.94;;
66888;Laerm;53798;51.680;5.976;2022-08-25T03:41:53;62.51;39.25;77.77;;
66888;Laerm;53798;51.680;5.976;2022-08-25T03:44:21;60.04;39.60;76.80;;
66888;Laerm;53798;51.680;5.976;2022-08-25T03:46:51;63.83;41.38;78.62;;
66888;Laerm;53798;51.680;5.976;2022-08-25T03:49:23;60.62;40.03;77.51;;
66888;Laerm;53798;51.680;5.976;2022-08-25T03:51:52;65.95;40.79;82.23;;
66888;Laerm;53798;51.680;5.976;2022-08-25T03:54:23;63.45;40.22;78.95;;
66888;Laerm;53798;51.680;5.976;2022-08-25T03:56:51;56.94;40.41;81.71;;
66888;Laerm;53798;51.680;5.976;2022-08-25T03:59:19;68.39;44.48;80.98;;
66888;Laerm;53798;51.680;5.976;2022-08-25T04:01:47;64.38;39.70;78.27;;
66888;Laerm;53798;51.680;5.976;2022-08-25T04:04:21;63.93;39.91;76.80;;
66888;Laerm;53798;51.680;5.976;2022-08-25T04:06:48;67.40;42.15;81.82;;
66888;Laerm;53798;51.680;5.976;2022-08-25T04:09:15;63.60;40.51;79.33;;
66888;Laerm;53798;51.680;5.976;2022-08-25T04:11:43;59.08;40.20;76.03;;
66888;Laerm;53798;51.680;5.976;2022-08-25T04:14:10;57.28;40.58;73.43;;
66888;Laerm;53798;51.680;5.976;2022-08-25T04:16:43;56.46;41.07;71.84;;
66888;Laerm;53798;51.680;5.976;2022-08-25T04:19:11;65.53;41.04;81.09;;
66888;Laerm;53798;51.680;5.976;2022-08-25T04:21:39;61.87;41.37;79.19;;
66888;Laerm;53798;51.680;5.976;2022-08-25T04:24:10;46.59;42.47;54.66;;
66888;Laerm;53798;51.680;5.976;2022-08-25T04:26:44;63.03;43.76;81.89;;
66888;Laerm;53798;51.680;5.976;2022-08-25T04:29:15;65.84;44.57;85.90;;
66888;Laerm;53798;51.680;5.976;2022-08-25T04:31:44;55.96;44.14;72.25;;
66888;Laerm;53798;51.680;5.976;2022-08-25T04:34:19;63.09;43.36;77.93;;
66888;Laerm;53798;51.680;5.976;2022-08-25T04:36:59;60.88;43.93;77.30;;
66888;Laerm;53798;51.680;5.976;2022-08-25T04:39:27;63.76;44.38;78.77;;
66888;Laerm;53798;51.680;5.976;2022-08-25T04:41:55;65.81;45.47;79.86;;
66888;Laerm;53798;51.680;5.976;2022-08-25T04:44:23;67.54;44.95;80.61;;
66888;Laerm;53798;51.680;5.976;2022-08-25T04:46:51;62.47;44.61;79.25;;
66888;Laerm;53798;51.680;5.976;2022-08-25T04:49:18;63.63;43.60;77.87;;
66888;Laerm;53798;51.680;5.976;2022-08-25T04:51:45;69.86;46.12;81.78;;
66888;Laerm;53798;51.680;5.976;2022-08-25T04:54:15;66.66;46.79;79.27;;
66888;Laerm;53798;51.680;5.976;2022-08-25T04:56:51;68.14;46.76;83.19;;
66888;Laerm;53798;51.680;5.976;2022-08-25T04:59:21;67.97;44.21;79.67;;
66888;Laerm;53798;51.680;5.976;2022-08-25T05:01:48;69.88;45.12;84.06;;
66888;Laerm;53798;51.680;5.976;2022-08-25T05:04:20;71.20;47.59;83.17;;
66888;Laerm;53798;51.680;5.976;2022-08-25T05:06:56;66.20;44.43;80.35;;
66888;Laerm;53798;51.680;5.976;2022-08-25T05:09:25;67.07;43.29;85.25;;
66888;Laerm;53798;51.680;5.976;2022-08-25T05:11:54;65.43;44.57;80.71;;
66888;Laerm;53798;51.680;5.976;2022-08-25T05:14:22;68.21;43.71;82.92;;
66888;Laerm;53798;51.680;5.976;2022-08-25T05:16:53;65.29;43.07;79.07;;
66888;Laerm;53798;51.680;5.976;2022-08-25T05:19:23;62.86;44.10;79.33;;
66888;Laerm;53798;51.680;5.976;2022-08-25T05:21:51;66.10;43.24;80.88;;
66888;Laerm;53798;51.680;5.976;2022-08-25T05:24:22;66.52;44.02;81.22;;
66888;Laerm;53798;51.680;5.976;2022-08-25T05:26:50;65.87;44.33;80.71;;
66888;Laerm;53798;51.680;5.976;2022-08-25T05:29:17;69.44;44.02;82.85;;
66888;Laerm;53798;51.680;5.976;2022-08-25T05:31:48;66.90;45.36;80.55;;
66888;Laerm;53798;51.680;5.976;2022-08-25T05:34:18;64.69;43.53;77.64;;
66888;Laerm;53798;51.680;5.976;2022-08-25T05:36:48;65.68;42.62;78.42;;
66888;Laerm;53798;51.680;5.976;2022-08-25T05:39:15;67.85;43.55;84.37;;
66888;Laerm;53798;51.680;5.976;2022-08-25T05:41:42;67.66;43.50;81.80;;
66888;Laerm;53798;51.680;5.976;2022-08-25T05:44:10;69.00;43.95;81.15;;
66888;Laerm;53798;51.680;5.976;2022-08-25T05:46:38;69.51;42.42;82.32;;
66888;Laerm;53798;51.680;5.976;2022-08-25T05:49:05;67.01;43.76;83.92;;
66888;Laerm;53798;51.680;5.976;2022-08-25T05:51:33;71.31;45.86;87.11;;
66888;Laerm;53798;51.680;5.976;2022-08-25T05:54:01;68.89;46.49;87.24;;
66888;Laerm;53798;51.680;5.976;2022-08-25T05:56:29;68.45;48.32;80.00;;
66888;Laerm;53798;51.680;5.976;2022-08-25T05:58:57;65.84;43.07;79.05;;
66888;Laerm;53798;51.680;5.976;2022-08-25T06:01:27;68.12;42.13;83.15;;
66888;Laerm;53798;51.680;5.976;2022-08-25T06:04:16;72.05;45.58;90.58;;
66888;Laerm;53798;51.680;5.976;2022-08-25T06:06:44;66.59;46.99;78.36;;
66888;Laerm;53798;51.680;5.976;2022-08-25T06:09:11;65.33;43.29;78.29;;
66888;Laerm;53798;51.680;5.976;2022-08-25T06:11:40;66.94;42.65;78.87;;
66888;Laerm;53798;51.680;5.976;2022-08-25T06:14:09;67.38;41.86;80.57;;
66888;Laerm;53798;51.680;5.976;2022-08-25T06:16:37;64.42;40.23;81.12;;
66888;Laerm;53798;51.680;5.976;2022-08-25T06:19:09;67.70;41.94;81.64;;
66888;Laerm;53798;51.680;5.976;2022-08-25T06:21:38;65.34;44.75;77.13;;
66888;Laerm;53798;51.680;5.976;2022-08-25T06:24:10;67.08;43.00;80.44;;
66888;Laerm;53798;51.680;5.976;2022-08-25T06:26:42;67.84;45.33;82.98;;
66888;Laerm;53798;51.680;5.976;2022-08-25T06:29:11;70.21;44.17;86.99;;
66888;Laerm;53798;51.680;5.976;2022-08-25T06:31:40;69.42;43.68;79.85;;
66888;Laerm;53798;51.680;5.976;2022-08-25T06:34:10;68.39;44.49;83.12;;
66888;Laerm;53798;51.680;5.976;2022-08-25T06:36:38;66.95;42.79;78.29;;
66888;Laerm;53798;51.680;5.976;2022-08-25T06:39:06;68.98;46.52;80.48;;
66888;Laerm;53798;51.680;5.976;2022-08-25T06:41:36;69.52;45.38;79.90;;
66888;Laerm;53798;51.680;5.976;2022-08-25T06:44:04;67.45;41.59;84.15;;
66888;Laerm;53798;51.680;5.976;2022-08-25T06:46:33;68.73;39.88;80.85;;
66888;Laerm;53798;51.680;5.976;2022-08-25T06:49:04;67.94;39.92;79.59;;
66888;Laerm;53798;51.680;5.976;2022-08-25T06:51:35;69.76;41.74;82.59;;
66888;Laerm;53798;51.680;5.976;2022-08-25T06:54:05;63.61;38.85;76.92;;
66888;Laerm;53798;51.680;5.976;2022-08-25T06:56:33;69.59;47.10;84.03;;
66888;Laerm;53798;51.680;5.976;2022-08-25T06:59:03;68.41;41.82;81.22;;
66888;Laerm;53798;51.680;5.976;2022-08-25T07:01:32;70.86;46.89;84.77;;
66888;Laerm;53798;51.680;5.976;2022-08-25T07:04:03;70.11;47.96;81.93;;
66888;Laerm;53798;51.680;5.976;2022-08-25T07:06:37;69.58;44.75;84.80;;
66888;Laerm;53798;51.680;5.976;2022-08-25T07:09:07;68.81;44.46;80.26;;
66888;Laerm;53798;51.680;5.976;2022-08-25T07:11:35;70.34;49.73;81.45;;
66888;Laerm;53798;51.680;5.976;2022-08-25T07:14:07;67.09;43.36;79.38;;
66888;Laerm;53798;51.680;5.976;2022-08-25T07:16:34;68.51;43.29;80.64;;
66888;Laerm;53798;51.680;5.976;2022-08-25T07:19:04;66.35;41.46;80.26;;
66888;Laerm;53798;51.680;5.976;2022-08-25T07:21:37;67.55;38.47;83.06;;
66888;Laerm;53798;51.680;5.976;2022-08-25T07:24:10;69.07;39.57;83.46;;
66888;Laerm;53798;51.680;5.976;2022-08-25T07:26:43;69.67;46.35;83.80;;
66888;Laerm;53798;51.680;5.976;2022-08-25T07:29:27;69.23;42.92;78.84;;
66888;Laerm;53798;51.680;5.976;2022-08-25T07:32:00;68.44;41.00;82.60;;
66888;Laerm;53798;51.680;5.976;2022-08-25T07:34:29;69.29;48.39;80.31;;
66888;Laerm;53798;51.680;5.976;2022-08-25T07:37:21;63.34;37.00;76.31;;
66888;Laerm;53798;51.680;5.976;2022-08-25T07:40:39;63.32;37.36;79.93;;
66888;Laerm;53798;51.680;5.976;2022-08-25T07:43:09;69.17;38.21;82.36;;
66888;Laerm;53798;51.680;5.976;2022-08-25T07:45:38;67.18;39.40;78.71;;
66888;Laerm;53798;51.680;5.976;2022-08-25T07:48:16;69.26;40.58;84.63;;
66888;Laerm;53798;51.680;5.976;2022-08-25T07:50:47;68.21;41.39;83.36;;
66888;Laerm;53798;51.680;5.976;2022-08-25T07:53:16;70.36;45.36;86.16;;
66888;Laerm;53798;51.680;5.976;2022-08-25T07:55:44;69.12;43.43;83.65;;
66888;Laerm;53798;51.680;5.976;2022-08-25T07:58:13;67.67;42.66;81.33;;
66888;Laerm;53798;51.680;5.976;2022-08-25T08:00:47;66.23;42.39;79.98;;
66888;Laerm;53798;51.680;5.976;2022-08-25T08:03:16;68.48;48.34;81.88;;
66888;Laerm;53798;51.680;5.976;2022-08-25T08:06:10;69.51;43.19;81.61;;
66888;Laerm;53798;51.680;5.976;2022-08-25T08:08:40;68.96;40.44;83.00;;
66888;Laerm;53798;51.680;5.976;2022-08-25T08:11:20;68.56;42.71;82.15;;
66888;Laerm;53798;51.680;5.976;2022-08-25T08:13:50;65.12;39.18;79.74;;
66888;Laerm;53798;51.680;5.976;2022-08-25T08:16:22;68.69;45.78;82.68;;
66888;Laerm;53798;51.680;5.976;2022-08-25T08:18:49;69.28;45.58;85.63;;
66888;Laerm;53798;51.680;5.976;2022-08-25T08:21:27;68.07;42.11;82.74;;
66888;Laerm;53798;51.680;5.976;2022-08-25T08:23:57;67.66;47.76;79.35;;
66888;Laerm;53798;51.680;5.976;2022-08-25T08:26:26;69.60;47.41;85.63;;
66888;Laerm;53798;51.680;5.976;2022-08-25T08:29:14;68.44;42.83;79.31;;
66888;Laerm;53798;51.680;5.976;2022-08-25T08:31:42;68.08;39.62;83.46;;
66888;Laerm;53798;51.680;5.976;2022-08-25T08:34:16;67.87;44.39;79.40;;
66888;Laerm;53798;51.680;5.976;2022-08-25T08:36:46;71.10;44.76;83.86;;
66888;Laerm;53798;51.680;5.976;2022-08-25T08:39:14;68.58;46.68;83.10;;
66888;Laerm;53798;51.680;5.976;2022-08-25T08:51:23;70.39;43.46;85.66;;
66888;Laerm;53798;51.680;5.976;2022-08-25T08:54:08;68.06;47.04;80.85;;
66888;Laerm;53798;51.680;5.976;2022-08-25T08:56:46;69.98;41.71;82.57;;
66888;Laerm;53798;51.680;5.976;2022-08-25T08:59:30;69.57;42.90;84.91;;
66888;Laerm;53798;51.680;5.976;2022-08-25T09:02:03;68.31;40.30;82.35;;
66888;Laerm;53798;51.680;5.976;2022-08-25T09:04:52;66.52;41.47;80.08;;
66888;Laerm;53798;51.680;5.976;2022-08-25T09:07:34;62.85;39.68;78.81;;
66888;Laerm;53798;51.680;5.976;2022-08-25T09:10:09;69.10;41.02;83.29;;
66888;Laerm;53798;51.680;5.976;2022-08-25T09:13:01;66.14;40.91;82.41;;
66888;Laerm;53798;51.680;5.976;2022-08-25T09:15:51;69.53;38.23;85.65;;
66888;Laerm;53798;51.680;5.976;2022-08-25T09:25:17;65.62;41.78;77.32;;
66888;Laerm;53798;51.680;5.976;2022-08-25T09:28:27;65.09;40.82;78.39;;
66888;Laerm;53798;51.680;5.976;2022-08-25T09:31:16;65.17;40.86;76.75;;
66888;Laerm;53798;51.680;5.976;2022-08-25T09:33:45;66.90;39.83;81.38;;
66888;Laerm;53798;51.680;5.976;2022-08-25T09:36:13;65.76;38.75;78.65;;
66888;Laerm;53798;51.680;5.976;2022-08-25T09:38:42;68.58;47.65;81.17;;
66888;Laerm;53798;51.680;5.976;2022-08-25T09:41:15;67.45;41.77;79.22;;
66888;Laerm;53798;51.680;5.976;2022-08-25T09:43:53;65.19;41.18;80.32;;
66888;Laerm;53798;51.680;5.976;2022-08-25T09:46:26;69.08;42.83;82.54;;
66888;Laerm;53798;51.680;5.976;2022-08-25T09:48:58;68.16;41.92;80.35;;
66888;Laerm;53798;51.680;5.976;2022-08-25T09:51:38;66.89;39.57;80.38;;
66888;Laerm;53798;51.680;5.976;2022-08-25T09:56:54;65.18;42.01;81.84;;
66888;Laerm;53798;51.680;5.976;2022-08-25T09:59:31;66.17;39.70;78.46;;
66888;Laerm;53798;51.680;5.976;2022-08-25T10:02:25;65.75;42.43;77.32;;
66888;Laerm;53798;51.680;5.976;2022-08-25T10:04:55;69.70;42.21;82.82;;
66888;Laerm;53798;51.680;5.976;2022-08-25T10:07:50;66.55;39.13;81.12;;
66888;Laerm;53798;51.680;5.976;2022-08-25T10:10:31;69.74;43.94;81.51;;
66888;Laerm;53798;51.680;5.976;2022-08-25T10:13:01;65.87;39.67;78.57;;
66888;Laerm;53798;51.680;5.976;2022-08-25T10:15:38;68.36;47.14;80.75;;
66888;Laerm;53798;51.680;5.976;2022-08-25T10:18:28;67.65;39.70;80.86;;
66888;Laerm;53798;51.680;5.976;2022-08-25T10:21:14;68.90;43.73;85.22;;
66888;Laerm;53798;51.680;5.976;2022-08-25T10:23:51;68.37;42.34;81.40;;
66888;Laerm;53798;51.680;5.976;2022-08-25T10:35:25;67.12;42.81;77.82;;
66888;Laerm;53798;51.680;5.976;2022-08-25T10:38:32;67.09;39.99;80.92;;
66888;Laerm;53798;51.680;5.976;2022-08-25T10:41:42;66.73;40.73;80.51;;
66888;Laerm;53798;51.680;5.976;2022-08-25T10:44:50;67.75;37.80;83.98;;
66888;Laerm;53798;51.680;5.976;2022-08-25T10:48:15;64.76;37.53;82.00;;
66888;Laerm;53798;51.680;5.976;2022-08-25T10:56:26;67.92;45.26;80.65;;
66888;Laerm;53798;51.680;5.976;2022-08-25T11:02:11;65.93;41.10;79.74;;
66888;Laerm;53798;51.680;5.976;2022-08-25T11:05:03;67.07;38.79;83.33;;
66888;Laerm;53798;51.680;5.976;2022-08-25T11:07:43;67.86;42.34;79.63;;
66888;Laerm;53798;51.680;5.976;2022-08-25T11:10:52;65.40;39.99;79.20;;
66888;Laerm;53798;51.680;5.976;2022-08-25T11:13:50;66.16;40.60;77.62;;
66888;Laerm;53798;51.680;5.976;2022-08-25T11:16:35;64.60;37.90;78.71;;
66888;Laerm;53798;51.680;5.976;2022-08-25T11:19:17;66.94;43.35;79.83;;
66888;Laerm;53798;51.680;5.976;2022-08-25T11:25:19;67.66;41.99;80.59;;
66888;Laerm;53798;51.680;5.976;2022-08-25T11:27:59;67.99;41.63;79.37;;
66888;Laerm;53798;51.680;5.976;2022-08-25T11:30:29;70.20;45.47;87.20;;
66888;Laerm;53798;51.680;5.976;2022-08-25T11:32:56;69.77;44.80;98.43;;
66888;Laerm;53798;51.680;5.976;2022-08-25T11:35:47;69.19;46.02;82.57;;
66888;Laerm;53798;51.680;5.976;2022-08-25T11:44:39;67.66;39.45;82.11;;
66888;Laerm;53798;51.680;5.976;2022-08-25T11:47:53;68.25;39.89;82.25;;
66888;Laerm;53798;51.680;5.976;2022-08-25T11:53:41;67.10;41.66;80.44;;
66888;Laerm;53798;51.680;5.976;2022-08-25T11:56:30;67.06;40.74;84.16;;
66888;Laerm;53798;51.680;5.976;2022-08-25T11:59:00;66.35;41.60;77.51;;
66888;Laerm;53798;51.680;5.976;2022-08-25T12:04:40;68.00;42.81;79.59;;
66888;Laerm;53798;51.680;5.976;2022-08-25T12:07:20;69.94;44.99;82.12;;
66888;Laerm;53798;51.680;5.976;2022-08-25T12:12:56;67.84;41.62;80.96;;
66888;Laerm;53798;51.680;5.976;2022-08-25T12:15:33;69.18;45.83;84.63;;
66888;Laerm;53798;51.680;5.976;2022-08-25T12:23:35;66.53;40.07;79.34;;
66888;Laerm;53798;51.680;5.976;2022-08-25T12:26:27;67.92;41.06;79.18;;
66888;Laerm;53798;51.680;5.976;2022-08-25T12:29:06;66.92;47.53;80.04;;
66888;Laerm;53798;51.680;5.976;2022-08-25T12:35:09;66.90;39.84;81.09;;
66888;Laerm;53798;51.680;5.976;2022-08-25T12:38:46;64.33;40.83;77.75;;
66888;Laerm;53798;51.680;5.976;2022-08-25T12:45:53;66.42;41.34;80.16;;
66888;Laerm;53798;51.680;5.976;2022-08-25T12:51:19;66.07;40.24;78.88;;
66888;Laerm;53798;51.680;5.976;2022-08-25T12:54:21;64.52;43.85;78.14;;
66888;Laerm;53798;51.680;5.976;2022-08-25T12:57:02;69.11;44.21;80.48;;
66888;Laerm;53798;51.680;5.976;2022-08-25T12:59:41;68.68;44.34;80.23;;
66888;Laerm;53798;51.680;5.976;2022-08-25T13:06:32;66.62;42.32;76.29;;
66888;Laerm;53798;51.680;5.976;2022-08-25T13:12:14;68.26;40.71;82.37;;
66888;Laerm;53798;51.680;5.976;2022-08-25T13:14:52;66.96;41.94;81.57;;
66888;Laerm;53798;51.680;5.976;2022-08-25T13:20:26;66.42;37.84;78.62;;
66888;Laerm;53798;51.680;5.976;2022-08-25T13:22:59;65.43;38.83;81.27;;
66888;Laerm;53798;51.680;5.976;2022-08-25T13:25:30;66.96;43.02;80.55;;
66888;Laerm;53798;51.680;5.976;2022-08-25T13:28:03;64.34;39.76;78.36;;
66888;Laerm;53798;51.680;5.976;2022-08-25T13:30:35;68.38;39.68;81.77;;
66888;Laerm;53798;51.680;5.976;2022-08-25T13:33:21;66.31;39.88;78.91;;
66888;Laerm;53798;51.680;5.976;2022-08-25T13:35:56;65.75;42.51;78.54;;
66888;Laerm;53798;51.680;5.976;2022-08-25T13:38:45;69.96;47.71;80.67;;
66888;Laerm;53798;51.680;5.976;2022-08-25T13:41:21;65.25;41.79;77.63;;
66888;Laerm;53798;51.680;5.976;2022-08-25T13:43:57;65.39;43.02;77.94;;
66888;Laerm;53798;51.680;5.976;2022-08-25T13:46:27;65.33;41.55;79.32;;
66888;Laerm;53798;51.680;5.976;2022-08-25T13:49:05;69.23;47.75;90.39;;
66888;Laerm;53798;51.680;5.976;2022-08-25T13:51:37;67.31;44.59;79.13;;
66888;Laerm;53798;51.680;5.976;2022-08-25T13:54:08;69.32;42.61;81.89;;
66888;Laerm;53798;51.680;5.976;2022-08-25T13:56:46;67.66;40.16;82.46;;
66888;Laerm;53798;51.680;5.976;2022-08-25T13:59:24;69.38;43.34;82.28;;
66888;Laerm;53798;51.680;5.976;2022-08-25T14:01:54;68.50;44.44;81.17;;
66888;Laerm;53798;51.680;5.976;2022-08-25T14:04:31;69.27;40.90;80.08;;
66888;Laerm;53798;51.680;5.976;2022-08-25T14:09:56;71.18;49.68;85.02;;
66888;Laerm;53798;51.680;5.976;2022-08-25T14:12:42;68.21;42.03;81.47;;
66888;Laerm;53798;51.680;5.976;2022-08-25T14:18:19;68.25;39.66;83.08;;
66888;Laerm;53798;51.680;5.976;2022-08-25T14:20:54;64.81;40.10;78.25;;
66888;Laerm;53798;51.680;5.976;2022-08-25T14:23:27;66.82;39.50;79.39;;
66888;Laerm;53798;51.680;5.976;2022-08-25T14:25:57;68.76;41.01;78.86;;
66888;Laerm;53798;51.680;5.976;2022-08-25T14:28:27;67.89;44.83;80.30;;
66888;Laerm;53798;51.680;5.976;2022-08-25T14:31:04;68.68;41.76;82.60;;
66888;Laerm;53798;51.680;5.976;2022-08-25T14:33:57;68.06;46.69;81.29;;
66888;Laerm;53798;51.680;5.976;2022-08-25T14:36:28;66.92;40.82;79.71;;
66888;Laerm;53798;51.680;5.976;2022-08-25T14:38:56;67.48;43.75;79.26;;
66888;Laerm;53798;51.680;5.976;2022-08-25T14:41:25;68.36;41.39;79.30;;
66888;Laerm;53798;51.680;5.976;2022-08-25T14:43:52;66.37;38.46;79.67;;
66888;Laerm;53798;51.680;5.976;2022-08-25T14:46:27;63.51;39.23;76.95;;
66888;Laerm;53798;51.680;5.976;2022-08-25T14:49:02;67.64;39.26;81.75;;
66888;Laerm;53798;51.680;5.976;2022-08-25T14:51:32;67.39;39.43;79.71;;
66888;Laerm;53798;51.680;5.976;2022-08-25T14:54:09;66.16;42.60;81.77;;
66888;Laerm;53798;51.680;5.976;2022-08-25T14:56:37;66.65;41.95;80.44;;
66888;Laerm;53798;51.680;5.976;2022-08-25T14:59:09;68.73;39.01;80.21;;
66888;Laerm;53798;51.680;5.976;2022-08-25T15:01:36;66.77;39.37;79.35;;
66888;Laerm;53798;51.680;5.976;2022-08-25T15:04:11;68.27;43.41;79.72;;
66888;Laerm;53798;51.680;5.976;2022-08-25T15:06:42;68.18;48.49;79.13;;
66888;Laerm;53798;51.680;5.976;2022-08-25T15:09:15;70.81;46.72;82.31;;
66888;Laerm;53798;51.680;5.976;2022-08-25T15:11:45;68.47;41.83;82.25;;
66888;Laerm;53798;51.680;5.976;2022-08-25T15:14:19;66.79;39.63;76.95;;
66888;Laerm;53798;51.680;5.976;2022-08-25T15:17:00;66.80;41.28;83.14;;
66888;Laerm;53798;51.680;5.976;2022-08-25T15:19:29;67.90;38.91;86.64;;
66888;Laerm;53798;51.680;5.976;2022-08-25T15:21:56;66.42;39.03;78.56;;
66888;Laerm;53798;51.680;5.976;2022-08-25T15:24:27;65.77;37.96;79.08;;
66888;Laerm;53798;51.680;5.976;2022-08-25T15:26:59;67.09;38.80;81.39;;
66888;Laerm;53798;51.680;5.976;2022-08-25T15:29:29;67.71;44.65;80.27;;
66888;Laerm;53798;51.680;5.976;2022-08-25T15:31:58;66.40;41.82;81.68;;
66888;Laerm;53798;51.680;5.976;2022-08-25T15:34:28;65.20;41.95;79.73;;
66888;Laerm;53798;51.680;5.976;2022-08-25T15:36:57;66.59;41.67;78.82;;
66888;Laerm;53798;51.680;5.976;2022-08-25T15:39:25;65.71;41.95;81.05;;
66888;Laerm;53798;51.680;5.976;2022-08-25T15:41:52;67.49;38.28;83.29;;
66888;Laerm;53798;51.680;5.976;2022-08-25T15:44:20;60.96;35.94;75.20;;
66888;Laerm;53798;51.680;5.976;2022-08-25T15:46:52;67.23;43.64;83.81;;
66888;Laerm;53798;51.680;5.976;2022-08-25T15:49:22;64.95;40.18;79.65;;